createdAt,value
2023-01-29T00:01:06.023Z,68.20
2023-01-29T00:03:34.380Z,68.21
2023-01-29T00:06:02.993Z,68.57
2023-01-29T00:08:30.559Z,69.04
2023-01-29T00:10:57.161Z,68.44
2023-01-29T00:13:24.751Z,68.10
2023-01-29T00:15:53.337Z,68.18
2023-01-29T00:18:20.955Z,68.21
2023-01-29T00:20:49.883Z,67.81
2023-01-29T00:23:18.642Z,68.21
2023-01-29T00:25:46.741Z,67.94
2023-01-29T00:28:15.340Z,68.41
2023-01-29T00:30:43.928Z,68.86
2023-01-29T00:33:12.664Z,68.14
2023-01-29T00:35:41.871Z,68.44
2023-01-29T00:38:10.762Z,68.39
2023-01-29T00:40:38.306Z,68.61
2023-01-29T00:43:05.891Z,68.59
2023-01-29T00:45:34.684Z,68.34
2023-01-29T00:48:03.129Z,67.93
2023-01-29T00:50:31.728Z,68.46
2023-01-29T00:53:00.320Z,67.42
2023-01-29T00:55:27.949Z,67.40
2023-01-29T00:57:56.720Z,67.35
2023-01-29T01:00:26.099Z,67.31
2023-01-29T01:02:55.371Z,66.42
2023-01-29T01:05:22.320Z,65.94
2023-01-29T01:07:51.474Z,65.57
2023-01-29T01:10:18.660Z,66.07
2023-01-29T01:12:47.115Z,65.33
2023-01-29T01:15:15.851Z,64.83
2023-01-29T01:17:43.324Z,65.10
2023-01-29T01:20:11.913Z,65.86
2023-01-29T01:22:40.867Z,65.64
2023-01-29T01:25:09.095Z,65.54
2023-01-29T01:27:36.694Z,65.14
2023-01-29T01:30:05.265Z,65.04
2023-01-29T01:32:32.889Z,64.55
2023-01-29T01:35:00.464Z,65.16
2023-01-29T01:37:28.085Z,65.23
2023-01-29T01:39:56.823Z,65.80
2023-01-29T01:42:24.268Z,65.39
2023-01-29T01:44:51.868Z,65.15
2023-01-29T01:47:20.485Z,65.21
2023-01-29T01:49:48.062Z,64.01
2023-01-29T01:52:15.640Z,64.78
2023-01-29T01:54:43.276Z,64.90
2023-01-29T01:57:10.885Z,65.56
2023-01-29T01:59:40.110Z,66.17
2023-01-29T02:02:07.063Z,65.33
2023-01-29T02:04:34.665Z,65.40
2023-01-29T02:07:03.833Z,66.00
2023-01-29T02:09:31.836Z,65.78
2023-01-29T02:12:00.623Z,65.82
2023-01-29T02:14:28.069Z,66.30
2023-01-29T02:16:56.734Z,66.45
2023-01-29T02:19:24.251Z,65.23
2023-01-29T02:21:52.872Z,65.07
2023-01-29T02:24:20.559Z,65.28
2023-01-29T02:26:49.048Z,65.21
2023-01-29T02:29:17.657Z,65.81
2023-01-29T02:31:46.244Z,65.08
2023-01-29T02:34:13.836Z,65.88
2023-01-29T02:36:41.435Z,66.02
2023-01-29T02:39:10.058Z,66.37
2023-01-29T02:41:37.620Z,66.54
2023-01-29T02:44:04.218Z,67.56
2023-01-29T02:46:31.801Z,67.05
2023-01-29T02:49:00.411Z,66.10
2023-01-29T02:51:26.993Z,65.98
2023-01-29T02:53:55.959Z,66.68
2023-01-29T02:56:23.205Z,66.33
2023-01-29T02:58:50.800Z,66.50
2023-01-29T03:01:19.391Z,66.74
2023-01-29T03:03:47.003Z,66.35
2023-01-29T03:06:15.570Z,67.02
2023-01-29T03:08:44.474Z,67.37
2023-01-29T03:11:11.803Z,66.65
2023-01-29T03:13:39.369Z,66.37
2023-01-29T03:16:07.017Z,67.29
2023-01-29T03:18:34.568Z,66.91
2023-01-29T03:21:01.468Z,67.64
2023-01-29T03:23:28.735Z,67.22
2023-01-29T03:25:56.355Z,66.07
2023-01-29T03:28:23.936Z,67.19
2023-01-29T03:30:52.811Z,66.76
2023-01-29T03:33:19.629Z,67.84
2023-01-29T03:35:47.740Z,66.81
2023-01-29T03:38:16.325Z,67.01
2023-01-29T03:40:42.957Z,67.14
2023-01-29T03:43:11.674Z,67.09
2023-01-29T03:45:39.149Z,67.38
2023-01-29T03:48:06.711Z,66.50
2023-01-29T03:50:35.735Z,67.28
2023-01-29T03:53:02.878Z,67.00
2023-01-29T03:55:30.491Z,67.21
2023-01-29T03:57:58.064Z,66.91
2023-01-29T04:00:25.676Z,67.34
2023-01-29T04:02:52.305Z,67.65
2023-01-29T04:05:19.905Z,67.64
2023-01-29T04:07:47.487Z,67.89
2023-01-29T04:10:16.835Z,67.17
2023-01-29T04:12:43.708Z,67.32
2023-01-29T04:15:12.302Z,67.39
2023-01-29T04:17:39.970Z,68.28
2023-01-29T04:20:07.502Z,68.20
2023-01-29T04:22:35.124Z,68.41
2023-01-29T04:25:03.673Z,68.10
2023-01-29T04:27:32.533Z,67.30
2023-01-29T04:29:59.885Z,66.63
2023-01-29T04:32:28.452Z,66.48
2023-01-29T04:34:56.081Z,66.59
2023-01-29T04:37:24.664Z,67.26
2023-01-29T04:39:53.302Z,66.79
2023-01-29T04:42:24.760Z,67.39
2023-01-29T04:44:51.511Z,67.18
2023-01-29T04:47:19.119Z,67.78
2023-01-29T04:49:46.664Z,68.39
2023-01-29T04:52:14.264Z,68.17
2023-01-29T04:54:42.847Z,68.07
2023-01-29T04:57:11.872Z,68.03
2023-01-29T04:59:40.067Z,67.83
2023-01-29T05:02:08.678Z,68.34
2023-01-29T05:04:37.283Z,67.67
2023-01-29T05:07:05.880Z,68.11
2023-01-29T05:09:34.927Z,67.31
2023-01-29T05:12:02.076Z,67.69
2023-01-29T05:14:30.975Z,67.45
2023-01-29T05:16:58.288Z,67.85
2023-01-29T05:19:26.901Z,67.71
2023-01-29T05:21:55.504Z,67.29
2023-01-29T05:24:23.228Z,66.47
2023-01-29T05:26:52.162Z,66.86
2023-01-29T05:29:20.275Z,66.73
2023-01-29T05:31:48.926Z,66.82
2023-01-29T05:34:17.475Z,66.84
2023-01-29T05:36:45.081Z,65.93
2023-01-29T05:39:14.093Z,66.50
2023-01-29T05:41:41.267Z,66.46
2023-01-29T05:44:10.394Z,66.27
2023-01-29T05:46:38.463Z,66.26
2023-01-29T05:49:08.079Z,66.22
2023-01-29T05:51:35.684Z,65.92
2023-01-29T05:54:04.661Z,66.57
2023-01-29T05:56:31.840Z,66.62
2023-01-29T05:58:59.464Z,66.35
2023-01-29T06:01:27.051Z,66.25
2023-01-29T06:03:54.634Z,66.36
2023-01-29T06:06:23.249Z,67.20
2023-01-29T06:08:51.825Z,67.35
2023-01-29T06:11:18.462Z,66.95
2023-01-29T06:13:46.013Z,66.26
2023-01-29T06:16:14.884Z,66.94
2023-01-29T06:18:43.218Z,67.20
2023-01-29T06:21:11.793Z,67.66
2023-01-29T06:23:40.694Z,67.65
2023-01-29T06:26:09.015Z,67.69
2023-01-29T06:28:37.601Z,67.54
2023-01-29T06:33:54.018Z,66.53
2023-01-29T06:36:21.489Z,66.17
2023-01-29T06:38:49.090Z,66.83
2023-01-29T06:41:17.758Z,66.92
2023-01-29T06:43:45.309Z,66.83
2023-01-29T06:46:12.859Z,67.18
2023-01-29T06:48:41.855Z,67.06
2023-01-29T06:51:09.095Z,66.83
2023-01-29T06:53:36.678Z,66.69
2023-01-29T06:56:05.693Z,66.93
2023-01-29T06:58:32.846Z,67.09
2023-01-29T07:01:01.811Z,66.29
2023-01-29T07:03:30.065Z,66.51
2023-01-29T07:05:58.834Z,66.43
2023-01-29T07:08:27.576Z,66.56
2023-01-29T07:10:56.540Z,66.48
2023-01-29T07:13:23.453Z,66.05
2023-01-29T07:15:51.050Z,65.95
2023-01-29T07:18:19.671Z,66.10
2023-01-29T07:20:47.301Z,66.50
2023-01-29T07:23:14.856Z,66.61
2023-01-29T07:25:42.506Z,66.22
2023-01-29T07:28:10.060Z,66.89
2023-01-29T07:30:39.393Z,66.19
2023-01-29T07:33:07.656Z,66.91
2023-01-29T07:35:35.863Z,66.62
2023-01-29T07:38:03.559Z,66.41
2023-01-29T07:40:31.143Z,65.52
2023-01-29T07:42:57.711Z,66.03
2023-01-29T07:45:26.377Z,65.70
2023-01-29T07:47:53.927Z,65.85
2023-01-29T07:50:21.520Z,65.64
2023-01-29T07:52:50.689Z,66.19
2023-01-29T07:55:17.670Z,65.67
2023-01-29T07:57:46.263Z,65.21
2023-01-29T08:00:15.226Z,65.53
2023-01-29T08:02:42.483Z,65.02
2023-01-29T08:05:11.077Z,65.58
2023-01-29T08:07:38.657Z,65.13
2023-01-29T08:10:08.987Z,64.84
2023-01-29T08:12:35.861Z,65.05
2023-01-29T08:15:04.459Z,64.37
2023-01-29T08:17:32.024Z,63.96
2023-01-29T08:19:59.652Z,63.88
2023-01-29T08:22:28.227Z,63.96
2023-01-29T08:25:06.302Z,64.12
2023-01-29T08:27:35.486Z,63.64
2023-01-29T08:30:03.087Z,63.80
2023-01-29T08:32:30.676Z,63.63
2023-01-29T08:34:58.270Z,63.15
2023-01-29T08:43:02.010Z,63.13
2023-01-29T08:45:29.831Z,62.87
2023-01-29T08:47:57.497Z,63.54
2023-01-29T08:50:25.078Z,63.18
2023-01-29T08:52:51.545Z,62.62
2023-01-29T08:55:18.661Z,62.83
2023-01-29T08:57:46.859Z,62.60
2023-01-29T09:00:13.308Z,62.10
2023-01-29T09:02:39.840Z,61.62
2023-01-29T09:05:06.651Z,61.63
2023-01-29T09:07:33.232Z,61.86
2023-01-29T09:10:02.120Z,61.72
2023-01-29T09:12:29.420Z,61.62
2023-01-29T09:14:56.022Z,61.27
2023-01-29T09:17:22.493Z,61.76
2023-01-29T09:19:49.225Z,62.10
2023-01-29T09:22:16.787Z,60.71
2023-01-29T09:24:43.384Z,60.94
2023-01-29T09:27:09.996Z,61.18
2023-01-29T09:29:37.587Z,60.63
2023-01-29T09:32:04.064Z,60.70
2023-01-29T09:34:30.752Z,61.08
2023-01-29T09:36:57.345Z,60.62
2023-01-29T09:39:24.969Z,59.77
2023-01-29T09:41:51.580Z,59.60
2023-01-29T09:44:18.435Z,60.16
2023-01-29T09:46:45.741Z,59.57
2023-01-29T09:49:13.334Z,60.54
2023-01-29T09:51:40.934Z,60.56
2023-01-29T09:54:08.539Z,60.58
2023-01-29T09:56:35.158Z,60.26
2023-01-29T09:59:02.736Z,59.81
2023-01-29T10:01:29.387Z,59.71
2023-01-29T10:03:56.912Z,58.91
2023-01-29T10:06:23.388Z,59.32
2023-01-29T10:08:49.839Z,59.41
2023-01-29T10:11:16.320Z,59.19
2023-01-29T10:13:42.749Z,59.73
2023-01-29T10:16:09.197Z,59.15
2023-01-29T10:18:36.449Z,59.52
2023-01-29T10:21:05.140Z,59.24
2023-01-29T10:23:34.443Z,58.86
2023-01-29T10:26:02.237Z,59.19
2023-01-29T10:28:29.817Z,58.62
2023-01-29T10:30:56.336Z,59.06
2023-01-29T10:33:24.053Z,58.62
2023-01-29T10:35:50.877Z,58.39
2023-01-29T10:38:19.202Z,57.56
2023-01-29T10:40:46.801Z,57.46
2023-01-29T10:43:16.379Z,57.39
2023-01-29T10:45:43.986Z,55.77
2023-01-29T10:48:10.582Z,56.22
2023-01-29T10:50:37.036Z,56.55
2023-01-29T10:53:03.778Z,56.68
2023-01-29T10:55:30.464Z,56.00
2023-01-29T10:57:59.060Z,55.78
2023-01-29T11:00:25.651Z,57.00
2023-01-29T11:02:52.545Z,56.09
2023-01-29T11:05:20.841Z,56.54
2023-01-29T11:07:48.453Z,56.93
2023-01-29T11:10:16.202Z,56.42
2023-01-29T11:12:43.653Z,57.18
2023-01-29T11:15:11.251Z,56.74
2023-01-29T11:17:37.824Z,57.26
2023-01-29T11:20:05.423Z,57.45
2023-01-29T11:22:32.001Z,57.03
2023-01-29T11:25:00.620Z,56.90
2023-01-29T11:27:28.211Z,57.07
2023-01-29T11:29:55.798Z,56.82
2023-01-29T11:32:24.413Z,56.92
2023-01-29T11:34:51.256Z,56.55
2023-01-29T11:37:18.590Z,56.12
2023-01-29T11:39:46.241Z,57.50
2023-01-29T11:42:14.918Z,56.23
2023-01-29T11:44:42.465Z,56.21
2023-01-29T11:47:11.065Z,56.50
2023-01-29T11:49:37.763Z,56.16
2023-01-29T11:52:05.345Z,56.02
2023-01-29T11:54:32.923Z,55.86
2023-01-29T11:57:00.519Z,55.38
2023-01-29T11:59:28.132Z,55.21
2023-01-29T12:01:54.780Z,55.72
2023-01-29T12:04:22.343Z,55.59
2023-01-29T12:06:51.079Z,55.23
2023-01-29T12:09:18.561Z,55.17
2023-01-29T12:11:45.486Z,55.18
2023-01-29T12:14:13.742Z,55.02
2023-01-29T12:16:42.605Z,55.16
2023-01-29T12:19:11.784Z,55.36
2023-01-29T12:21:41.818Z,54.92
2023-01-29T12:24:08.660Z,54.93
2023-01-29T12:26:35.319Z,54.82
2023-01-29T12:29:01.857Z,53.81
2023-01-29T12:31:29.499Z,53.94
2023-01-29T12:33:57.058Z,54.58
2023-01-29T12:36:23.661Z,55.15
2023-01-29T12:38:50.348Z,55.08
2023-01-29T12:41:17.928Z,53.58
2023-01-29T12:43:44.534Z,54.82
2023-01-29T12:46:12.135Z,55.53
2023-01-29T12:48:38.728Z,55.63
2023-01-29T12:51:05.378Z,54.57
2023-01-29T12:53:31.991Z,54.38
2023-01-29T12:55:58.791Z,53.89
2023-01-29T12:58:26.388Z,53.65
2023-01-29T13:00:53.058Z,53.64
2023-01-29T13:03:19.765Z,53.96
2023-01-29T13:05:46.255Z,53.50
2023-01-29T13:08:13.875Z,53.31
2023-01-29T13:10:40.500Z,53.57
2023-01-29T13:13:07.393Z,53.07
2023-01-29T13:15:34.721Z,52.73
2023-01-29T13:18:01.373Z,52.91
2023-01-29T13:20:30.233Z,52.99
2023-01-29T13:22:57.562Z,52.61
2023-01-29T13:25:24.178Z,52.06
2023-01-29T13:27:52.132Z,52.20
2023-01-29T13:30:20.613Z,53.02
2023-01-29T13:32:48.211Z,52.26
2023-01-29T13:35:17.059Z,52.11
2023-01-29T13:37:45.440Z,52.12
2023-01-29T13:40:13.040Z,50.76
2023-01-29T13:42:40.633Z,50.49
2023-01-29T13:45:08.212Z,52.55
2023-01-29T13:47:35.830Z,53.15
2023-01-29T13:50:02.475Z,52.46
2023-01-29T13:52:30.101Z,52.69
2023-01-29T13:54:57.685Z,53.59
2023-01-29T13:57:25.292Z,53.19
2023-01-29T13:59:52.883Z,53.24
2023-01-29T14:02:19.879Z,54.05
2023-01-29T14:04:48.060Z,53.19
2023-01-29T14:07:16.968Z,53.35
2023-01-29T14:09:44.271Z,53.40
2023-01-29T14:12:11.831Z,53.18
2023-01-29T14:14:39.477Z,53.51
2023-01-29T14:17:07.057Z,52.72
2023-01-29T14:19:34.824Z,53.04
2023-01-29T14:22:02.381Z,53.44
2023-01-29T14:24:30.017Z,53.59
2023-01-29T14:26:56.591Z,53.42
2023-01-29T14:29:33.911Z,53.07
2023-01-29T14:32:01.955Z,52.80
2023-01-29T14:34:29.546Z,53.15
2023-01-29T14:36:56.121Z,53.86
2023-01-29T14:39:22.537Z,53.87
2023-01-29T14:41:48.974Z,53.52
2023-01-29T14:44:15.919Z,53.11
2023-01-29T14:46:42.571Z,53.60
2023-01-29T14:49:10.136Z,52.87
2023-01-29T14:51:36.553Z,53.34
2023-01-29T14:54:02.983Z,54.26
2023-01-29T14:56:29.390Z,53.92
2023-01-29T14:58:56.310Z,53.70
2023-01-29T15:01:23.612Z,53.20
2023-01-29T15:03:50.034Z,53.52
2023-01-29T15:06:16.464Z,54.19
2023-01-29T15:08:43.902Z,52.76
2023-01-29T15:11:10.316Z,51.87
2023-01-29T15:13:36.772Z,52.20
2023-01-29T15:16:03.751Z,52.77
2023-01-29T15:18:30.221Z,53.37
2023-01-29T15:20:56.624Z,53.73
2023-01-29T15:23:26.066Z,53.38
2023-01-29T15:25:52.468Z,54.16
2023-01-29T15:28:18.872Z,54.29
2023-01-29T15:30:45.765Z,53.76
2023-01-29T15:33:12.216Z,52.56
2023-01-29T15:35:38.638Z,53.27
2023-01-29T15:38:05.060Z,54.06
2023-01-29T15:40:31.488Z,54.70
2023-01-29T15:42:57.952Z,55.47
2023-01-29T15:45:24.877Z,54.76
2023-01-29T15:47:51.460Z,55.28
2023-01-29T15:50:17.904Z,54.68
2023-01-29T15:52:44.678Z,54.52
2023-01-29T15:55:11.208Z,54.62
2023-01-29T15:57:37.849Z,55.52
2023-01-29T16:00:04.235Z,55.42
2023-01-29T16:02:30.776Z,55.85
2023-01-29T16:04:57.619Z,56.85
2023-01-29T16:07:24.041Z,56.18
2023-01-29T16:09:50.470Z,56.91
2023-01-29T16:12:16.903Z,57.56
2023-01-29T16:14:43.332Z,57.44
2023-01-29T16:17:10.113Z,57.61
2023-01-29T16:19:36.511Z,57.69
2023-01-29T16:22:02.919Z,58.15
2023-01-29T16:24:29.340Z,59.03
2023-01-29T16:26:56.946Z,58.68
2023-01-29T16:29:23.359Z,58.67
2023-01-29T16:31:49.877Z,59.27
2023-01-29T16:34:16.326Z,59.10
2023-01-29T16:36:42.791Z,59.54
2023-01-29T16:39:09.186Z,59.66
2023-01-29T16:41:36.451Z,59.79
2023-01-29T16:44:03.244Z,60.51
2023-01-29T16:46:30.657Z,60.66
2023-01-29T16:48:57.086Z,60.58
2023-01-29T16:51:23.502Z,61.15
2023-01-29T16:53:49.901Z,60.83
2023-01-29T16:56:17.049Z,62.29
2023-01-29T16:58:43.634Z,62.02
2023-01-29T17:01:10.261Z,62.04
2023-01-29T17:03:36.721Z,61.77
2023-01-29T17:06:03.153Z,62.59
2023-01-29T17:08:29.827Z,62.11
2023-01-29T17:10:56.292Z,62.32
2023-01-29T17:13:22.725Z,62.42
2023-01-29T17:15:49.808Z,62.19
2023-01-29T17:18:17.381Z,62.66
2023-01-29T17:20:44.002Z,62.42
2023-01-29T17:23:10.565Z,62.68
2023-01-29T17:25:37.407Z,63.28
2023-01-29T17:28:04.772Z,62.40
2023-01-29T17:30:32.385Z,62.58
2023-01-29T17:32:59.065Z,62.30
2023-01-29T17:35:25.497Z,62.90
2023-01-29T17:37:52.227Z,62.93
2023-01-29T17:40:18.838Z,63.31
2023-01-29T17:42:45.429Z,63.24
2023-01-29T17:45:11.867Z,63.54
2023-01-29T17:47:38.607Z,63.79
2023-01-29T17:50:06.415Z,64.46
2023-01-29T17:52:33.794Z,64.31
2023-01-29T17:55:01.406Z,64.40
2023-01-29T17:57:27.842Z,64.76
2023-01-29T17:59:54.274Z,65.34
2023-01-29T18:02:28.810Z,64.80
2023-01-29T18:04:56.237Z,64.79
2023-01-29T18:07:22.677Z,65.22
2023-01-29T18:09:51.001Z,64.89
2023-01-29T18:12:17.581Z,65.20
2023-01-29T18:14:44.028Z,65.65
2023-01-29T18:17:10.445Z,65.46
2023-01-29T18:19:36.857Z,65.37
2023-01-29T18:22:03.958Z,65.28
2023-01-29T18:24:31.583Z,65.16
2023-01-29T18:26:59.165Z,65.15
2023-01-29T18:29:25.742Z,64.89
2023-01-29T18:31:53.450Z,64.85
2023-01-29T18:34:19.959Z,64.67
2023-01-29T18:36:46.360Z,64.07
2023-01-29T18:39:12.826Z,63.78
2023-01-29T18:41:39.254Z,64.38
2023-01-29T18:44:05.698Z,65.10
2023-01-29T18:46:33.088Z,64.09
2023-01-29T18:49:00.711Z,63.47
2023-01-29T18:51:28.330Z,63.85
2023-01-29T18:53:56.896Z,64.61
2023-01-29T18:56:25.496Z,65.10
2023-01-29T18:58:53.168Z,65.33
2023-01-29T19:01:22.740Z,64.66
2023-01-29T19:03:49.545Z,65.29
2023-01-29T19:06:15.983Z,64.56
2023-01-29T19:08:42.393Z,64.20
2023-01-29T19:11:08.936Z,63.58
2023-01-29T19:13:35.461Z,63.96
2023-01-29T19:16:01.908Z,62.91
2023-01-29T19:18:28.354Z,63.60
2023-01-29T19:20:55.508Z,63.15
2023-01-29T19:23:23.227Z,63.11
2023-01-29T19:25:50.678Z,64.13
2023-01-29T19:28:17.270Z,65.01
2023-01-29T19:30:43.888Z,65.18
2023-01-29T19:33:10.800Z,65.72
2023-01-29T19:35:37.240Z,66.70
2023-01-29T19:38:04.716Z,66.67
2023-01-29T19:40:32.279Z,66.63
2023-01-29T19:42:58.960Z,66.60
2023-01-29T19:45:49.520Z,66.23
2023-01-29T19:48:12.875Z,66.16
2023-01-29T19:50:39.341Z,66.56
2023-01-29T19:53:05.805Z,65.85
2023-01-29T19:55:32.235Z,66.61
2023-01-29T19:57:58.672Z,65.93
2023-01-29T20:00:25.122Z,66.27
2023-01-29T20:02:51.542Z,66.47
2023-01-29T20:05:18.802Z,66.07
2023-01-29T20:07:45.916Z,66.62
2023-01-29T20:10:12.519Z,65.92
2023-01-29T20:12:39.124Z,66.06
2023-01-29T20:15:06.709Z,65.40
2023-01-29T20:17:34.296Z,65.41
2023-01-29T20:20:02.686Z,65.70
2023-01-29T20:22:29.484Z,66.69
2023-01-29T20:24:57.074Z,67.24
2023-01-29T20:27:23.671Z,66.83
2023-01-29T20:29:50.255Z,67.50
2023-01-29T20:32:17.871Z,66.88
2023-01-29T20:34:45.434Z,66.63
2023-01-29T20:37:11.888Z,66.29
2023-01-29T20:39:38.338Z,66.97
2023-01-29T20:42:05.201Z,67.76
2023-01-29T20:44:32.797Z,68.15
2023-01-29T20:47:01.863Z,66.87
2023-01-29T20:49:28.978Z,67.10
2023-01-29T20:51:55.450Z,66.98
2023-01-29T20:54:21.892Z,67.67
2023-01-29T20:56:48.457Z,68.04
2023-01-29T20:59:15.145Z,68.15
2023-01-29T21:01:42.503Z,68.19
2023-01-29T21:04:08.949Z,67.35
2023-01-29T21:06:35.393Z,67.21
2023-01-29T21:09:01.814Z,67.21
2023-01-29T21:11:28.309Z,67.37
2023-01-29T21:13:55.102Z,66.79
2023-01-29T21:16:21.636Z,66.93
2023-01-29T21:18:48.359Z,66.74
2023-01-29T21:21:14.791Z,67.65
2023-01-29T21:23:41.235Z,66.84
2023-01-29T21:26:08.122Z,66.82
2023-01-29T21:28:35.710Z,66.31
2023-01-29T21:31:02.594Z,65.83
2023-01-29T21:33:29.042Z,65.61
2023-01-29T21:35:55.463Z,64.74
2023-01-29T21:38:21.915Z,64.66
2023-01-29T21:40:48.335Z,65.05
2023-01-29T21:43:14.784Z,65.73
2023-01-29T21:45:41.405Z,65.28
2023-01-29T21:48:08.455Z,65.81
2023-01-29T21:50:35.023Z,65.81
2023-01-29T21:53:01.644Z,65.86
2023-01-29T21:55:29.233Z,66.29
2023-01-29T21:57:55.659Z,66.08
2023-01-29T22:00:22.079Z,65.86
2023-01-29T22:02:48.549Z,64.78
2023-01-29T22:05:19.620Z,65.30
2023-01-29T22:07:48.292Z,64.97
2023-01-29T22:10:16.278Z,65.94
2023-01-29T22:12:43.406Z,65.78
2023-01-29T22:15:09.994Z,65.75
2023-01-29T22:17:36.594Z,67.13
2023-01-29T22:20:04.168Z,67.61
2023-01-29T22:22:31.764Z,68.22
2023-01-29T22:24:59.372Z,67.00
2023-01-29T22:27:25.831Z,67.19
2023-01-29T22:29:52.544Z,67.45
2023-01-29T22:32:20.157Z,66.18
2023-01-29T22:34:47.731Z,66.46
2023-01-29T22:37:15.328Z,67.59
2023-01-29T22:39:41.926Z,66.51
2023-01-29T22:42:09.530Z,65.69
2023-01-29T22:44:37.090Z,65.18
2023-01-29T22:47:04.711Z,65.33
2023-01-29T22:49:31.282Z,66.13
2023-01-29T22:52:00.565Z,66.11
2023-01-29T22:54:27.466Z,67.20
2023-01-29T22:56:53.903Z,67.00
2023-01-29T22:59:20.358Z,65.82
2023-01-29T23:01:46.841Z,67.09
2023-01-29T23:04:13.877Z,67.45
2023-01-29T23:06:41.439Z,66.12
2023-01-29T23:09:08.020Z,66.70
2023-01-29T23:11:35.619Z,66.23
2023-01-29T23:14:02.059Z,66.93
2023-01-29T23:16:28.910Z,66.56
2023-01-29T23:18:56.487Z,66.18
2023-01-29T23:21:25.237Z,66.54
2023-01-29T23:23:52.262Z,65.72
2023-01-29T23:26:19.322Z,65.40
2023-01-29T23:28:46.879Z,65.50
2023-01-29T23:31:13.497Z,64.70
2023-01-29T23:33:40.050Z,65.50
2023-01-29T23:36:07.674Z,65.65
2023-01-29T23:38:34.274Z,64.68
2023-01-29T23:41:00.855Z,64.36
2023-01-29T23:43:27.271Z,65.52
2023-01-29T23:45:54.037Z,65.54
2023-01-29T23:48:21.616Z,65.36
2023-01-29T23:50:48.482Z,65.94
2023-01-29T23:53:14.907Z,66.09
2023-01-29T23:55:42.459Z,66.44
2023-01-29T23:58:09.266Z,66.52
